Flugplatz Wendelsheim (UL)

Hier findest Du alle Informationen zum Flugplatz Wendelsheim (UL).

Informationen für Piloten zum Flugplatz Wendelsheim

Hier findest Du alle relevanten Informationen, die Du als Pilot benötigst, um Wendelsheim anzufliegen.

Flugplatz: Wendelsheim ICAO-Code: UL Flugplatz
Frequenz Turm: 123,425 Mhz GAFOR Gebiet: 44
Frequenz Ground: 123,425 Mhz Mogas: nein
Platzrunde: N 1200 ft Landegebühr: 15 €
Platzhöhe: Sunrise: 04:06 Uhr UTC
Pisten: 06/24 - 300 m x 30 m, GRAS Sunset: 19:00 Uhr UTC

Flugwetter am Flugplatz Wendelsheim

Die METAR Information stammen aus EDFM (49.67 km entfernt).

METAR Code:
2022/07/31 13:50
EDFM 311350Z 25009KT 190V300 CAVOK 32/10 Q1015

Flugschulen am Flugplatz Wendelsheim

Am Flugplatz Wendelsheim gibt es leider keine Flugschule.

Benachbarte Flugplätze und Flugschulen

Es gibt 22 weitere Flugplätze in einem Umkreis von 50 km um den Flugplatz Wendelsheim.

Jetzt anmelden

Passwort vergessen

Umfrage Archiv

Sendet Ihr ADS-B und/oder FLARM?

Ja
83.2 %
Nein
16.8 %
Stimmen: 197 | Diskussion
Anzeige: Roland Aircraft
Statistik Alle Mitglieder

Aktuell sind 79 Besucher online, davon 1 Mitglied und 78 Gäste.


Mitglieder online:
Nordex 

Anzeige: ULPower Aero Engines Anzeige: Pocket FMS